Time;durP1;ratioP1;P1;durP2;ratioP2;P2;SDS_P1;SDS_P2;PMS_P1;PMS_P2;Temp;Humidity;BMP_temperature;BMP_pressure;BME280_temperature;BME280_humidity;BME280_pressure;Samples;Min_cycle;Max_cycle;Signal;HPM_P1;HPM_P2
2021/07/03 00:01:00;;;;;;;7.03;6.32;;;20.30;65.40;;;;;;4931005;29;20186;-77
2021/07/03 00:03:26;;;;;;;7.47;6.78;;;20.30;65.40;;;;;;4929792;29;20024;-77
2021/07/03 00:05:52;;;;;;;7.50;6.90;;;20.30;65.50;;;;;;4930736;29;20632;-76
2021/07/03 00:08:18;;;;;;;6.68;6.07;;;20.30;65.50;;;;;;4930155;29;20748;-76
2021/07/03 00:10:44;;;;;;;7.55;6.68;;;20.20;65.40;;;;;;4930434;29;20035;-77
2021/07/03 00:13:11;;;;;;;7.72;6.90;;;20.20;65.50;;;;;;4929749;29;20036;-76
2021/07/03 00:15:37;;;;;;;7.78;7.18;;;20.20;65.50;;;;;;4930628;29;20107;-76
2021/07/03 00:18:04;;;;;;;7.68;6.90;;;20.20;65.50;;;;;;4930080;29;20024;-77
2021/07/03 00:20:31;;;;;;;8.85;7.18;;;20.20;65.60;;;;;;4930469;29;20027;-77
2021/07/03 00:22:57;;;;;;;9.20;7.63;;;20.20;65.70;;;;;;4929258;29;20028;-77
2021/07/03 00:25:23;;;;;;;8.50;7.65;;;20.20;65.70;;;;;;4929856;29;20032;-77
2021/07/03 00:27:49;;;;;;;7.88;7.07;;;20.10;65.60;;;;;;4930172;29;20066;-76
2021/07/03 00:30:15;;;;;;;8.27;7.47;;;20.10;65.60;;;;;;4930235;29;20076;-76
2021/07/03 00:32:42;;;;;;;8.20;7.50;;;20.10;65.70;;;;;;4944748;29;20039;-77
2021/07/03 00:35:08;;;;;;;8.27;7.15;;;20.10;65.70;;;;;;4929541;29;20419;-77
2021/07/03 00:37:34;;;;;;;8.40;7.60;;;20.10;65.80;;;;;;4945231;29;20400;-77
2021/07/03 00:40:02;;;;;;;8.00;7.30;;;20.10;65.80;;;;;;4912811;29;20038;-77
2021/07/03 00:42:28;;;;;;;7.47;6.85;;;20.00;66.20;;;;;;4930068;29;20511;-77
2021/07/03 00:44:54;;;;;;;8.73;8.02;;;20.00;65.70;;;;;;4928588;29;20044;-77
2021/07/03 00:47:21;;;;;;;7.13;6.53;;;20.00;65.80;;;;;;4929813;29;20060;-77
2021/07/03 00:49:49;;;;;;;7.90;7.10;;;20.00;65.90;;;;;;4928599;29;20059;-78
2021/07/03 00:52:16;;;;;;;7.78;7.18;;;20.00;65.90;;;;;;4929680;29;20486;-78
2021/07/03 00:54:44;;;;;;;7.95;7.25;;;20.00;65.90;;;;;;4928046;29;20155;-77
2021/07/03 00:57:12;;;;;;;8.23;7.63;;;20.00;66.00;;;;;;4927225;29;20032;-76
2021/07/03 00:59:44;;;;;;;8.60;7.70;;;19.90;65.80;;;;;;4944343;29;20123;-77
2021/07/03 01:02:17;;;;;;;8.00;7.18;;;19.90;65.90;;;;;;4928313;29;20035;-79
2021/07/03 01:04:45;;;;;;;7.93;7.22;;;19.90;65.90;;;;;;4927705;29;20031;-77
2021/07/03 01:07:12;;;;;;;8.60;7.45;;;19.90;66.00;;;;;;4928020;29;20372;-78
2021/07/03 01:09:38;;;;;;;7.13;6.47;;;19.90;66.00;;;;;;4928289;29;20214;-78
2021/07/03 01:12:06;;;;;;;8.27;7.57;;;19.90;66.10;;;;;;4929334;29;20062;-79
2021/07/03 01:14:39;;;;;;;8.85;8.07;;;19.80;66.00;;;;;;4930307;29;20090;-77
2021/07/03 01:17:05;;;;;;;8.15;7.45;;;19.80;66.00;;;;;;4929114;29;20102;-77
2021/07/03 01:19:31;;;;;;;8.13;7.45;;;19.80;66.10;;;;;;4927893;29;20127;-77
2021/07/03 01:21:57;;;;;;;10.85;7.55;;;19.80;66.10;;;;;;4928606;29;20094;-79
2021/07/03 01:24:24;;;;;;;8.68;7.93;;;19.80;66.20;;;;;;4928715;29;20637;-78
2021/07/03 01:26:55;;;;;;;8.85;8.00;;;19.70;66.10;;;;;;4928183;29;20031;-78
2021/07/03 01:29:25;;;;;;;9.30;8.40;;;19.80;66.40;;;;;;4928812;29;20036;-77
2021/07/03 01:31:54;;;;;;;8.85;8.02;;;19.80;66.40;;;;;;4921318;29;20118;-77
2021/07/03 01:34:23;;;;;;;9.23;8.45;;;19.70;66.20;;;;;;4933952;29;20445;-76
2021/07/03 01:36:50;;;;;;;9.02;8.32;;;19.70;66.30;;;;;;4912732;29;20028;-77
2021/07/03 01:39:16;;;;;;;9.82;8.95;;;19.70;66.40;;;;;;4930497;29;20027;-76
2021/07/03 01:41:43;;;;;;;11.55;9.38;;;19.70;66.40;;;;;;4930661;29;20118;-76
2021/07/03 01:44:12;;;;;;;9.73;8.88;;;19.70;66.40;;;;;;4929447;29;20046;-77
2021/07/03 01:46:39;;;;;;;8.95;8.18;;;19.60;66.30;;;;;;4934496;29;20076;-77
2021/07/03 01:49:07;;;;;;;12.70;9.43;;;19.60;66.40;;;;;;4915805;29;20496;-80
2021/07/03 01:51:44;;;;;;;9.80;8.80;;;19.60;66.40;;;;;;4914435;29;20050;-79
2021/07/03 01:54:10;;;;;;;9.73;8.80;;;19.60;66.40;;;;;;4914511;29;20032;-79
2021/07/03 01:56:41;;;;;;;10.70;9.77;;;19.60;66.40;;;;;;4913113;29;20032;-79
2021/07/03 01:59:12;;;;;;;10.02;9.18;;;19.60;66.50;;;;;;4913833;29;20073;-78
2021/07/03 02:01:47;;;;;;;8.73;7.93;;;19.60;66.50;;;;;;4914090;29;20484;-79
2021/07/03 02:04:15;;;;;;;10.95;9.85;;;19.50;66.40;;;;;;4913921;29;20528;-79
2021/07/03 02:06:44;;;;;;;11.32;10.23;;;19.50;66.40;;;;;;4913959;29;20036;-79
2021/07/03 02:09:16;;;;;;;10.82;9.82;;;19.50;66.50;;;;;;4929233;29;20048;-79
2021/07/03 02:11:44;;;;;;;10.10;9.10;;;19.50;66.50;;;;;;4917064;29;20043;-77
2021/07/03 02:14:17;;;;;;;10.45;9.38;;;19.40;66.40;;;;;;4917290;29;20056;-78
2021/07/03 02:16:58;;;;;;;10.75;9.82;;;19.40;66.40;;;;;;4917360;29;20032;-78
2021/07/03 02:19:24;;;;;;;10.68;9.57;;;19.40;66.40;;;;;;4918023;29;20517;-78
2021/07/03 02:21:53;;;;;;;11.20;10.18;;;19.40;66.50;;;;;;4917465;29;20020;-77
2021/07/03 02:24:30;;;;;;;10.25;9.35;;;19.40;66.60;;;;;;4932287;29;20096;-78
2021/07/03 02:26:57;;;;;;;11.15;9.60;;;19.40;66.60;;;;;;4916265;29;20040;-78
2021/07/03 02:29:23;;;;;;;11.18;10.13;;;19.30;66.50;;;;;;4916775;29;20508;-77
2021/07/03 02:31:50;;;;;;;11.13;10.00;;;19.30;66.50;;;;;;4916668;29;20032;-77
2021/07/03 02:34:17;;;;;;;10.77;9.80;;;19.30;66.60;;;;;;4916529;29;20547;-79
2021/07/03 02:36:45;;;;;;;10.80;9.85;;;19.30;66.60;;;;;;4916917;29;20051;-80
2021/07/03 02:39:13;;;;;;;11.60;10.55;;;19.30;66.70;;;;;;4916922;29;20036;-79
2021/07/03 02:41:44;;;;;;;11.45;9.18;;;19.30;66.70;;;;;;4931846;29;20028;-78
2021/07/03 02:44:11;;;;;;;10.05;9.25;;;19.20;66.60;;;;;;4917639;29;20036;-78
2021/07/03 02:46:37;;;;;;;10.77;9.77;;;19.20;66.60;;;;;;4917820;29;20100;-78
2021/07/03 02:49:03;;;;;;;10.27;9.40;;;19.20;66.70;;;;;;4917147;29;20091;-78
2021/07/03 02:51:31;;;;;;;10.82;9.90;;;19.20;66.70;;;;;;4932265;29;20383;-77
2021/07/03 02:53:59;;;;;;;10.70;9.70;;;19.20;66.70;;;;;;4916200;29;20722;-78
2021/07/03 02:56:26;;;;;;;11.63;10.10;;;19.20;66.70;;;;;;4915901;29;20039;-78
2021/07/03 02:58:52;;;;;;;11.20;10.13;;;19.20;66.80;;;;;;4917844;29;20036;-79
2021/07/03 03:01:18;;;;;;;11.02;10.00;;;19.10;66.60;;;;;;4932225;29;20039;-79
2021/07/03 03:03:44;;;;;;;11.77;10.73;;;19.10;66.70;;;;;;4917844;29;20036;-79
2021/07/03 03:06:13;;;;;;;12.32;11.13;;;19.20;66.90;;;;;;4931628;29;20028;-78
2021/07/03 03:08:42;;;;;;;11.35;10.25;;;19.10;66.80;;;;;;4917438;29;20040;-76
2021/07/03 03:11:10;;;;;;;12.13;10.80;;;19.10;66.80;;;;;;4915995;29;20453;-78
2021/07/03 03:13:38;;;;;;;11.90;10.82;;;19.10;66.90;;;;;;4932092;29;20024;-78
2021/07/03 03:16:05;;;;;;;11.10;10.05;;;19.00;66.70;;;;;;4931986;29;20032;-79
2021/07/03 03:18:32;;;;;;;12.80;10.68;;;19.00;66.70;;;;;;4917211;29;20039;-77
2021/07/03 03:20:58;;;;;;;11.82;10.73;;;19.00;66.80;;;;;;4931433;29;20028;-77
2021/07/03 03:23:24;;;;;;;12.18;10.98;;;19.00;66.80;;;;;;4916839;29;20121;-78
2021/07/03 03:25:52;;;;;;;12.68;10.63;;;19.00;66.80;;;;;;4915787;29;20024;-78
2021/07/03 03:28:20;;;;;;;11.30;10.38;;;18.90;66.70;;;;;;4930110;29;20384;-77
2021/07/03 03:30:49;;;;;;;12.00;10.80;;;19.00;66.90;;;;;;4931623;29;20412;-78
2021/07/03 03:33:21;;;;;;;11.82;10.63;;;18.90;66.80;;;;;;4915798;29;20028;-76
2021/07/03 03:35:47;;;;;;;11.43;10.50;;;18.90;66.80;;;;;;4916756;29;20028;-77
2021/07/03 03:38:13;;;;;;;12.02;10.82;;;18.90;66.80;;;;;;4931637;29;20039;-79
2021/07/03 03:40:42;;;;;;;12.02;10.93;;;18.90;66.90;;;;;;4930835;29;20032;-78
2021/07/03 03:43:11;;;;;;;11.43;10.43;;;18.90;66.90;;;;;;4930633;29;20047;-78
2021/07/03 03:45:40;;;;;;;11.63;10.63;;;18.90;66.90;;;;;;4915155;29;20093;-79
2021/07/03 03:48:07;;;;;;;12.68;11.55;;;18.90;67.00;;;;;;4931044;29;20062;-78
2021/07/03 03:50:39;;;;;;;12.15;11.05;;;18.90;67.00;;;;;;4914949;29;20095;-78
2021/07/03 03:53:07;;;;;;;12.40;11.20;;;18.90;67.00;;;;;;4899574;29;20472;-79
2021/07/03 03:55:33;;;;;;;12.57;11.27;;;18.80;66.90;;;;;;4931344;29;20028;-78
2021/07/03 03:57:59;;;;;;;13.68;12.25;;;18.80;67.50;;;;;;4916126;29;20100;-79
2021/07/03 04:00:28;;;;;;;11.23;10.18;;;18.80;67.00;;;;;;4931341;29;20211;-79
2021/07/03 04:03:01;;;;;;;13.38;12.25;;;18.80;67.00;;;;;;4930607;29;20040;-78
2021/07/03 04:05:35;;;;;;;13.82;12.43;;;18.80;67.00;;;;;;4930721;29;20032;-78
2021/07/03 04:08:02;;;;;;;12.13;11.05;;;18.80;67.10;;;;;;4930720;29;20048;-79
2021/07/03 04:10:28;;;;;;;12.65;11.35;;;18.80;67.10;;;;;;4930513;29;20074;-79
2021/07/03 04:12:53;;;;;;;12.35;11.25;;;18.70;67.00;;;;;;4916277;29;20493;-79
2021/07/03 04:15:20;;;;;;;11.75;10.75;;;18.70;67.00;;;;;;4916323;29;20056;-79
2021/07/03 04:17:46;;;;;;;12.35;11.18;;;18.70;67.00;;;;;;4930450;29;20036;-80
2021/07/03 04:20:12;;;;;;;12.73;11.52;;;18.70;67.10;;;;;;4914587;29;20035;-79
2021/07/03 04:22:39;;;;;;;14.20;12.63;;;18.70;67.10;;;;;;4930410;29;20148;-78
2021/07/03 04:25:08;;;;;;;12.35;11.32;;;18.70;67.20;;;;;;4915573;29;20033;-77
2021/07/03 04:27:35;;;;;;;14.32;12.88;;;18.70;67.20;;;;;;4929929;29;20491;-78
2021/07/03 04:30:02;;;;;;;13.00;11.70;;;18.60;67.00;;;;;;4915401;29;20457;-78
2021/07/03 04:32:28;;;;;;;14.07;12.65;;;18.60;67.00;;;;;;4914282;29;20062;-79
2021/07/03 04:34:54;;;;;;;13.88;12.68;;;18.60;67.00;;;;;;4915672;29;20087;-79
2021/07/03 04:37:20;;;;;;;12.70;11.45;;;18.60;67.20;;;;;;4929589;29;20476;-77
2021/07/03 04:39:46;;;;;;;13.43;12.23;;;18.60;67.20;;;;;;4915416;29;20039;-78
2021/07/03 04:42:12;;;;;;;14.18;12.73;;;18.60;67.20;;;;;;4915334;29;20032;-78
2021/07/03 04:44:38;;;;;;;13.65;12.43;;;18.60;67.30;;;;;;4915272;29;20035;-78
2021/07/03 04:47:04;;;;;;;13.20;12.00;;;18.60;67.30;;;;;;4913130;29;20056;-77
2021/07/03 04:49:32;;;;;;;13.75;12.30;;;18.60;67.40;;;;;;4892978;29;20556;-77
2021/07/03 04:51:59;;;;;;;13.75;12.57;;;18.60;67.40;;;;;;4892214;29;20042;-78
2021/07/03 04:54:26;;;;;;;13.45;12.13;;;18.50;67.20;;;;;;4892158;29;20043;-77
2021/07/03 04:57:06;;;;;;;13.48;12.18;;;18.60;67.40;;;;;;4892527;29;20035;-78
2021/07/03 04:59:34;;;;;;;13.60;12.30;;;18.50;67.30;;;;;;4927440;29;20036;-76
2021/07/03 05:02:00;;;;;;;12.90;11.65;;;18.50;67.30;;;;;;4916565;29;20628;-78
2021/07/03 05:04:26;;;;;;;13.38;12.05;;;18.50;67.30;;;;;;4927656;29;20032;-79
2021/07/03 05:06:52;;;;;;;13.55;12.25;;;18.50;67.40;;;;;;4909998;29;20046;-78
2021/07/03 05:09:18;;;;;;;12.30;11.20;;;18.50;67.40;;;;;;4910675;29;20044;-79
2021/07/03 05:11:43;;;;;;;14.30;11.98;;;18.50;67.50;;;;;;4909741;29;20495;-78
2021/07/03 05:14:09;;;;;;;13.43;12.23;;;18.50;67.50;;;;;;4909129;29;20311;-78
2021/07/03 05:16:35;;;;;;;14.45;12.98;;;18.50;67.50;;;;;;4909631;29;20040;-78
2021/07/03 05:19:01;;;;;;;14.38;12.88;;;18.50;67.50;;;;;;4921894;29;20087;-78
2021/07/03 05:21:27;;;;;;;12.85;11.65;;;18.50;67.50;;;;;;4910556;29;20036;-78
2021/07/03 05:23:53;;;;;;;14.27;12.88;;;18.50;67.60;;;;;;4939574;29;20514;-77
2021/07/03 05:26:21;;;;;;;14.20;12.80;;;18.50;67.60;;;;;;4927898;29;20483;-78
2021/07/03 05:28:47;;;;;;;13.65;12.45;;;18.40;67.40;;;;;;4928776;29;20501;-77
2021/07/03 05:31:13;;;;;;;15.15;12.73;;;18.50;67.60;;;;;;4928025;29;20039;-78
2021/07/03 05:33:38;;;;;;;13.52;12.15;;;18.50;67.70;;;;;;4928163;29;20105;-77
2021/07/03 05:36:04;;;;;;;13.18;11.57;;;18.40;67.50;;;;;;4929441;29;20443;-78
2021/07/03 05:38:39;;;;;;;14.40;13.00;;;18.40;67.50;;;;;;4925032;29;20032;-75
2021/07/03 05:41:05;;;;;;;13.80;12.48;;;18.40;67.60;;;;;;4910128;29;20530;-76
2021/07/03 05:43:31;;;;;;;13.45;12.15;;;18.50;67.80;;;;;;4924074;29;20035;-75
2021/07/03 05:45:57;;;;;;;13.90;12.57;;;18.40;67.60;;;;;;4933244;29;20706;-76
2021/07/03 05:48:23;;;;;;;14.05;12.70;;;18.40;67.70;;;;;;4932381;29;20036;-77
2021/07/03 05:50:50;;;;;;;14.70;13.30;;;18.40;67.70;;;;;;4931328;29;20035;-75
2021/07/03 05:53:16;;;;;;;14.15;12.75;;;18.40;67.70;;;;;;4932825;29;20031;-78
2021/07/03 05:55:42;;;;;;;16.13;14.63;;;18.40;68.10;;;;;;4932633;29;20032;-77
2021/07/03 05:58:08;;;;;;;19.13;15.25;;;18.40;68.60;;;;;;4931484;29;20078;-76
2021/07/03 06:00:35;;;;;;;16.40;14.82;;;18.50;69.30;;;;;;4931617;29;20127;-76
2021/07/03 06:03:00;;;;;;;17.08;15.30;;;18.50;69.70;;;;;;4931425;29;20035;-78
2021/07/03 06:05:26;;;;;;;17.33;15.65;;;18.60;70.30;;;;;;4931656;29;20036;-77
2021/07/03 06:07:52;;;;;;;17.02;15.52;;;18.60;70.60;;;;;;4932672;29;20268;-77
2021/07/03 06:10:18;;;;;;;17.85;16.13;;;18.70;71.10;;;;;;4932548;29;20035;-76
2021/07/03 06:12:44;;;;;;;16.70;15.15;;;18.70;71.40;;;;;;4922336;29;20116;-76
2021/07/03 06:15:11;;;;;;;17.85;16.00;;;18.80;71.80;;;;;;4913249;29;20036;-78
2021/07/03 06:17:37;;;;;;;17.70;15.93;;;18.80;72.00;;;;;;4916170;29;20123;-77
2021/07/03 06:20:05;;;;;;;16.90;15.30;;;18.80;72.20;;;;;;4929247;29;20399;-78
2021/07/03 06:22:31;;;;;;;18.55;16.85;;;18.90;72.70;;;;;;4929307;29;20125;-78
2021/07/03 06:24:57;;;;;;;20.17;16.90;;;18.90;72.80;;;;;;4916978;29;20677;-76
2021/07/03 06:27:23;;;;;;;17.10;15.40;;;18.90;73.00;;;;;;4916658;29;20069;-78
2021/07/03 06:29:49;;;;;;;18.30;16.55;;;18.90;73.10;;;;;;4914053;29;20097;-77
2021/07/03 06:32:15;;;;;;;19.63;17.02;;;19.00;73.40;;;;;;4911830;29;20142;-75
2021/07/03 06:34:41;;;;;;;15.88;14.45;;;19.00;73.60;;;;;;4913291;29;20043;-75
2021/07/03 06:37:08;;;;;;;17.90;16.15;;;19.00;73.80;;;;;;4911347;29;20032;-75
2021/07/03 06:39:34;;;;;;;19.30;16.73;;;19.00;74.50;;;;;;4915392;29;20311;-75
2021/07/03 06:42:00;;;;;;;18.90;16.55;;;19.10;74.30;;;;;;4911849;29;20028;-76
2021/07/03 06:44:26;;;;;;;19.13;17.25;;;19.20;74.50;;;;;;4931255;29;20036;-77
2021/07/03 06:46:52;;;;;;;18.63;16.83;;;19.20;74.60;;;;;;4930420;29;20058;-78
2021/07/03 06:49:18;;;;;;;19.60;17.70;;;19.30;74.80;;;;;;4931437;29;20039;-79
2021/07/03 06:51:44;;;;;;;19.30;17.27;;;19.30;74.80;;;;;;4946753;29;20023;-78
2021/07/03 06:54:10;;;;;;;19.52;17.63;;;19.40;75.00;;;;;;4914811;29;20058;-80
2021/07/03 06:56:36;;;;;;;22.02;17.98;;;19.40;75.10;;;;;;4912248;29;20035;-77
2021/07/03 06:59:03;;;;;;;20.45;17.95;;;19.40;75.10;;;;;;4925695;29;20040;-78
2021/07/03 07:01:29;;;;;;;18.70;16.92;;;19.50;75.20;;;;;;4930115;29;20028;-77
2021/07/03 07:03:55;;;;;;;20.30;18.38;;;19.50;75.20;;;;;;4931940;29;20151;-78
2021/07/03 07:06:21;;;;;;;21.52;18.08;;;19.50;75.10;;;;;;4922935;29;20150;-79
2021/07/03 07:08:47;;;;;;;20.52;18.58;;;19.60;75.20;;;;;;4913489;29;20114;-81
2021/07/03 07:11:13;;;;;;;18.73;16.80;;;19.60;75.20;;;;;;4891436;29;20039;-79
2021/07/03 07:13:39;;;;;;;18.48;16.80;;;19.70;75.20;;;;;;4885964;29;20107;-80
2021/07/03 07:16:05;;;;;;;19.60;17.65;;;19.70;75.10;;;;;;4908289;29;20032;-78
2021/07/03 07:18:31;;;;;;;19.75;17.70;;;19.80;75.10;;;;;;4908759;29;20032;-82
2021/07/03 07:20:57;;;;;;;20.10;18.00;;;19.80;74.90;;;;;;4927156;29;20039;-79
2021/07/03 07:23:23;;;;;;;18.55;16.75;;;19.90;75.40;;;;;;4920967;29;20123;-79
2021/07/03 07:25:50;;;;;;;21.88;18.05;;;19.90;74.70;;;;;;4926377;29;20199;-76
2021/07/03 07:28:17;;;;;;;19.98;17.98;;;20.00;74.60;;;;;;4924844;29;20407;-77
2021/07/03 07:30:43;;;;;;;20.13;18.00;;;20.00;74.50;;;;;;4908454;29;20616;-77
2021/07/03 07:33:10;;;;;;;19.33;17.40;;;20.10;74.60;;;;;;4914841;29;20031;-77
2021/07/03 07:35:36;;;;;;;20.25;18.35;;;20.20;74.60;;;;;;4907633;29;20033;-78
2021/07/03 07:38:03;;;;;;;19.30;17.40;;;20.30;74.50;;;;;;4911600;29;20080;-78
2021/07/03 07:40:29;;;;;;;19.50;17.50;;;20.40;74.40;;;;;;4928318;29;20498;-77
2021/07/03 07:42:55;;;;;;;18.70;17.00;;;20.50;74.40;;;;;;4928095;29;20046;-79
2021/07/03 07:45:21;;;;;;;20.23;18.25;;;20.60;74.30;;;;;;4927542;29;20046;-78
2021/07/03 07:47:48;;;;;;;19.65;17.75;;;20.80;74.40;;;;;;4929596;29;20060;-77
2021/07/03 07:50:14;;;;;;;21.30;18.13;;;21.00;74.60;;;;;;4911502;29;20044;-78
2021/07/03 07:52:40;;;;;;;21.42;19.20;;;21.20;74.50;;;;;;4915582;29;20031;-77
2021/07/03 07:55:06;;;;;;;20.10;18.00;;;21.40;74.30;;;;;;4930220;29;20037;-79
2021/07/03 07:57:35;;;;;;;20.80;18.73;;;21.60;74.10;;;;;;4929686;29;20119;-78
2021/07/03 08:00:01;;;;;;;19.63;17.55;;;21.80;74.00;;;;;;4928977;29;20131;-77
2021/07/03 08:02:27;;;;;;;19.95;18.13;;;21.90;73.70;;;;;;4928361;29;20378;-78
2021/07/03 08:04:53;;;;;;;19.45;17.50;;;22.00;73.60;;;;;;4929014;29;20034;-78
2021/07/03 08:07:19;;;;;;;19.92;17.83;;;22.10;73.40;;;;;;4929842;29;20114;-77
2021/07/03 08:09:45;;;;;;;19.02;17.02;;;22.20;73.30;;;;;;4930039;29;20051;-77
2021/07/03 08:12:12;;;;;;;17.35;15.70;;;22.20;73.10;;;;;;4928679;29;20143;-77
2021/07/03 08:14:39;;;;;;;19.10;16.73;;;22.30;73.20;;;;;;4929767;29;20103;-77
2021/07/03 08:17:05;;;;;;;19.20;17.23;;;22.30;73.00;;;;;;4930133;29;20031;-77
2021/07/03 08:19:31;;;;;;;19.60;17.45;;;22.40;73.20;;;;;;4928468;29;20031;-77
2021/07/03 08:21:58;;;;;;;19.13;17.15;;;22.50;73.00;;;;;;4929629;29;20028;-78
2021/07/03 08:24:25;;;;;;;18.02;16.02;;;22.60;72.90;;;;;;4944541;29;20551;-77
2021/07/03 08:26:51;;;;;;;19.88;17.88;;;22.70;72.80;;;;;;4929178;29;20494;-77
2021/07/03 08:29:17;;;;;;;19.13;17.27;;;23.00;73.10;;;;;;4912081;29;20525;-79
2021/07/03 08:31:43;;;;;;;20.67;18.58;;;23.70;73.30;;;;;;4929703;29;20111;-77
2021/07/03 08:34:09;;;;;;;20.25;18.02;;;24.50;72.60;;;;;;4912701;29;20036;-78
2021/07/03 08:36:35;;;;;;;18.48;16.70;;;25.00;71.60;;;;;;4910641;29;20064;-77
2021/07/03 08:39:01;;;;;;;19.23;17.38;;;25.50;70.80;;;;;;4906491;29;20036;-78
2021/07/03 08:41:29;;;;;;;16.95;15.18;;;26.20;69.60;;;;;;4910594;29;20058;-78
2021/07/03 08:43:55;;;;;;;17.77;16.17;;;27.10;67.70;;;;;;4923607;29;20586;-76
2021/07/03 08:46:21;;;;;;;18.95;17.05;;;27.40;66.30;;;;;;4928756;29;20127;-77
2021/07/03 08:48:53;;;;;;;17.63;15.93;;;27.30;66.10;;;;;;4936386;29;20071;-77
2021/07/03 08:51:19;;;;;;;20.83;18.73;;;27.00;66.30;;;;;;4927860;29;20039;-78
2021/07/03 08:53:45;;;;;;;19.27;17.48;;;26.70;66.90;;;;;;4926831;29;20112;-78
2021/07/03 08:56:11;;;;;;;17.95;16.23;;;26.40;67.40;;;;;;4927920;29;20031;-78
2021/07/03 08:58:38;;;;;;;19.40;17.60;;;26.30;67.70;;;;;;4928670;29;20032;-77
2021/07/03 09:01:06;;;;;;;20.83;18.65;;;26.40;67.60;;;;;;4929334;29;20127;-77
2021/07/03 09:03:33;;;;;;;19.92;17.85;;;26.70;67.50;;;;;;4927644;29;20491;-81
2021/07/03 09:06:04;;;;;;;19.55;17.65;;;27.10;66.40;;;;;;4929080;29;20075;-77
2021/07/03 09:08:30;;;;;;;18.45;16.77;;;27.50;65.40;;;;;;4928628;29;20035;-77
2021/07/03 09:11:10;;;;;;;17.77;15.88;;;27.80;65.00;;;;;;4929692;29;20043;-79
2021/07/03 09:13:38;;;;;;;16.98;15.27;;;28.00;64.50;;;;;;4927554;29;20055;-77
2021/07/03 09:16:05;;;;;;;16.45;14.88;;;28.10;64.50;;;;;;4942960;29;20032;-76
2021/07/03 09:18:32;;;;;;;17.13;15.45;;;28.10;64.30;;;;;;4927438;29;20114;-77
2021/07/03 09:21:04;;;;;;;17.25;15.45;;;28.20;64.30;;;;;;4929120;29;20036;-77
2021/07/03 09:23:32;;;;;;;16.02;14.43;;;28.20;64.10;;;;;;4927960;29;20062;-77
2021/07/03 09:26:01;;;;;;;16.27;14.65;;;28.10;64.10;;;;;;4928822;29;20563;-76
2021/07/03 09:28:30;;;;;;;17.35;15.55;;;27.90;64.20;;;;;;4927995;29;20294;-77
2021/07/03 09:31:00;;;;;;;17.08;15.57;;;27.80;64.30;;;;;;4928854;29;20039;-76
2021/07/03 09:33:30;;;;;;;16.65;15.02;;;27.80;64.50;;;;;;4928640;29;20568;-78
2021/07/03 09:36:00;;;;;;;15.85;14.40;;;27.70;64.50;;;;;;4929007;29;20098;-76
2021/07/03 09:38:35;;;;;;;16.38;14.80;;;27.90;64.60;;;;;;4920557;29;20486;-78
2021/07/03 09:41:10;;;;;;;16.60;14.95;;;28.10;64.20;;;;;;4909447;29;20051;-77
2021/07/03 09:43:40;;;;;;;15.88;14.30;;;28.20;63.80;;;;;;4920656;29;20495;-77
2021/07/03 09:46:06;;;;;;;15.82;14.32;;;28.30;63.70;;;;;;4943247;29;20344;-77
2021/07/03 09:48:32;;;;;;;15.25;13.93;;;28.30;63.60;;;;;;4919945;29;20050;-77
2021/07/03 09:51:10;;;;;;;16.58;15.02;;;28.20;63.50;;;;;;4909869;29;20032;-80
2021/07/03 09:53:37;;;;;;;15.75;14.25;;;28.20;63.50;;;;;;4917268;29;20095;-77
2021/07/03 09:56:06;;;;;;;16.55;14.60;;;28.10;63.60;;;;;;4927068;29;20040;-77
2021/07/03 09:58:34;;;;;;;15.95;14.35;;;27.90;63.70;;;;;;4919650;29;20048;-78
2021/07/03 10:01:00;;;;;;;16.00;14.32;;;27.80;63.80;;;;;;4908834;29;20499;-77
2021/07/03 10:03:26;;;;;;;15.65;14.10;;;27.70;64.00;;;;;;4917477;29;20027;-77
2021/07/03 10:05:56;;;;;;;14.80;13.27;;;27.60;63.90;;;;;;4926673;29;20039;-81
2021/07/03 10:08:24;;;;;;;15.80;13.80;;;27.50;63.80;;;;;;4915163;29;20069;-77
2021/07/03 10:10:56;;;;;;;13.52;12.23;;;27.50;64.00;;;;;;4890435;29;20047;-78
2021/07/03 10:13:23;;;;;;;14.88;13.35;;;27.40;64.00;;;;;;4894980;29;20039;-77
2021/07/03 10:15:49;;;;;;;13.02;11.98;;;27.40;64.10;;;;;;4890834;29;20512;-77
2021/07/03 10:18:23;;;;;;;13.70;12.10;;;27.30;64.10;;;;;;4903626;29;20119;-78
2021/07/03 10:20:52;;;;;;;13.68;12.38;;;27.20;64.00;;;;;;4928696;29;20027;-78
2021/07/03 10:23:18;;;;;;;12.15;11.05;;;27.20;64.20;;;;;;4926868;29;20028;-79
2021/07/03 10:25:47;;;;;;;12.73;11.05;;;27.10;64.20;;;;;;4927332;29;20036;-79
2021/07/03 10:28:17;;;;;;;12.73;11.43;;;27.00;64.30;;;;;;4926613;29;20484;-78
2021/07/03 10:30:49;;;;;;;13.10;11.88;;;27.00;64.50;;;;;;4928869;29;20479;-77
2021/07/03 10:33:20;;;;;;;11.68;10.57;;;26.90;64.50;;;;;;4931544;29;20083;-77
2021/07/03 10:35:52;;;;;;;11.68;10.52;;;27.00;64.60;;;;;;4931711;29;20087;-78
2021/07/03 10:38:28;;;;;;;11.18;10.07;;;27.00;64.60;;;;;;4916440;29;20036;-76
2021/07/03 10:41:00;;;;;;;11.65;10.48;;;27.10;64.50;;;;;;4903244;29;20036;-77
2021/07/03 10:43:26;;;;;;;11.00;9.95;;;27.30;64.50;;;;;;4896811;29;20036;-78
2021/07/03 10:45:54;;;;;;;7.93;5.47;;;27.30;64.40;;;;;;4901496;29;20028;-74
2021/07/03 10:48:24;;;;;;;6.85;3.90;;;27.50;63.80;;;;;;4906174;29;20276;-74
2021/07/03 10:50:53;;;;;;;4.30;3.45;;;27.50;62.80;;;;;;4930702;29;20035;-75
2021/07/03 10:53:21;;;;;;;3.80;3.40;;;27.40;62.40;;;;;;4931908;29;20075;-73
2021/07/03 10:55:48;;;;;;;4.22;3.22;;;27.30;62.50;;;;;;4931672;29;20039;-73
2021/07/03 10:58:21;;;;;;;7.63;3.65;;;27.10;62.30;;;;;;4929741;29;20031;-75
2021/07/03 11:00:51;;;;;;;5.55;3.25;;;27.00;62.50;;;;;;4945837;29;20036;-73
2021/07/03 11:03:23;;;;;;;3.40;3.13;;;26.90;62.40;;;;;;4909680;29;20449;-77
2021/07/03 11:05:51;;;;;;;3.97;3.33;;;26.80;62.40;;;;;;4911747;29;20048;-77
2021/07/03 11:08:20;;;;;;;4.80;3.30;;;26.70;62.80;;;;;;4918264;29;20491;-79
2021/07/03 11:10:48;;;;;;;5.72;5.18;;;26.50;63.00;;;;;;4930974;29;20034;-78
2021/07/03 11:13:24;;;;;;;5.45;4.70;;;26.50;63.30;;;;;;4922776;29;20036;-76
2021/07/03 11:15:51;;;;;;;6.10;5.60;;;26.50;63.30;;;;;;4911758;29;20137;-76
2021/07/03 11:18:17;;;;;;;6.45;5.80;;;26.60;63.40;;;;;;4915596;29;20577;-76
2021/07/03 11:20:44;;;;;;;5.65;5.15;;;26.80;63.30;;;;;;4928527;29;20028;-77
2021/07/03 11:23:12;;;;;;;10.55;5.30;;;26.80;63.00;;;;;;4928574;29;20114;-77
2021/07/03 11:25:43;;;;;;;5.47;4.55;;;27.00;62.90;;;;;;4929523;29;20039;-75
2021/07/03 11:28:22;;;;;;;5.18;4.10;;;27.20;62.50;;;;;;4925312;29;20063;-73
2021/07/03 11:31:00;;;;;;;4.57;4.10;;;27.30;62.00;;;;;;4910557;29;20047;-76
2021/07/03 11:33:34;;;;;;;6.68;4.97;;;27.40;62.00;;;;;;4910807;29;20083;-75
2021/07/03 11:36:02;;;;;;;6.43;4.47;;;27.50;62.70;;;;;;4911515;29;20484;-74
2021/07/03 11:38:28;;;;;;;4.07;3.67;;;27.60;62.10;;;;;;4919553;29;20032;-75
2021/07/03 11:40:59;;;;;;;5.90;3.30;;;27.70;62.00;;;;;;4931147;29;20099;-75
2021/07/03 11:43:27;;;;;;;5.05;3.75;;;27.80;61.90;;;;;;4910280;29;20024;-75
2021/07/03 11:45:54;;;;;;;4.75;4.25;;;27.90;61.20;;;;;;4904906;29;20103;-74
2021/07/03 11:48:23;;;;;;;6.72;4.32;;;28.00;60.90;;;;;;4931370;29;20058;-75
2021/07/03 11:50:52;;;;;;;4.15;3.72;;;28.10;60.80;;;;;;4929209;29;20032;-73
2021/07/03 11:53:20;;;;;;;5.43;3.88;;;28.20;60.70;;;;;;4910859;29;20035;-77
2021/07/03 11:55:49;;;;;;;4.68;3.78;;;28.30;60.70;;;;;;4910464;29;20480;-76
2021/07/03 11:58:23;;;;;;;7.68;4.13;;;28.30;60.40;;;;;;4911343;29;20056;-76
2021/07/03 12:00:50;;;;;;;;;;;28.40;60.20;;;;;;4911229;29;20131;-74
2021/07/03 12:03:18;;;;;;;7.10;3.55;;;28.50;60.50;;;;;;4918510;29;19915;-75
2021/07/03 12:05:50;;;;;;;6.43;4.40;;;28.60;60.10;;;;;;4930554;29;20035;-75
2021/07/03 12:08:16;;;;;;;7.28;4.05;;;28.70;59.40;;;;;;4930159;29;20035;-74
2021/07/03 12:10:47;;;;;;;7.85;3.78;;;28.70;59.20;;;;;;4930615;29;20043;-74
2021/07/03 12:13:28;;;;;;;5.75;3.83;;;28.90;59.10;;;;;;4920470;29;20046;-77
2021/07/03 12:15:54;;;;;;;5.38;4.10;;;28.90;58.90;;;;;;4898884;29;20036;-76
2021/07/03 12:18:32;;;;;;;5.43;4.38;;;28.90;58.70;;;;;;4916942;29;20122;-75
2021/07/03 12:21:11;;;;;;;6.97;4.20;;;28.80;58.40;;;;;;4944677;29;20098;-74
2021/07/03 12:23:50;;;;;;;4.50;3.45;;;28.70;58.40;;;;;;4918794;29;20032;-78
2021/07/03 12:26:21;;;;;;;7.05;3.63;;;28.60;58.50;;;;;;4910570;29;20495;-76
2021/07/03 12:28:52;;;;;;;6.28;3.72;;;28.50;58.60;;;;;;4920878;29;20040;-75
2021/07/03 12:31:21;;;;;;;4.38;3.33;;;28.30;58.70;;;;;;4929947;29;20048;-75
2021/07/03 12:33:47;;;;;;;7.13;3.70;;;28.10;58.90;;;;;;4930211;29;20035;-84
2021/07/03 12:36:19;;;;;;;3.60;2.90;;;28.00;59.50;;;;;;4921947;29;20038;-73